createdAt,value
2023-03-21T00:02:25.380Z,52.91
2023-03-21T00:04:55.103Z,52.86
2023-03-21T00:07:24.531Z,52.85
2023-03-21T00:09:56.845Z,52.98
2023-03-21T00:12:27.146Z,53.02
2023-03-21T00:14:56.273Z,53.01
2023-03-21T00:17:25.005Z,52.92
2023-03-21T00:19:54.393Z,52.98
2023-03-21T00:22:22.300Z,53.02
2023-03-21T00:24:52.323Z,53.04
2023-03-21T00:27:47.271Z,53.11
2023-03-21T00:30:15.405Z,53.14
2023-03-21T00:32:55.156Z,53.20
2023-03-21T00:35:54.101Z,53.28
2023-03-21T00:38:11.755Z,53.26
2023-03-21T00:40:48.709Z,53.30
2023-03-21T00:43:18.461Z,53.27
2023-03-21T00:45:46.968Z,53.35
2023-03-21T00:48:18.936Z,53.41
2023-03-21T00:50:49.739Z,53.34
2023-03-21T00:53:17.565Z,53.43
2023-03-21T00:55:47.642Z,53.43
2023-03-21T00:58:16.759Z,53.44
2023-03-21T01:00:49.316Z,53.47
2023-03-21T01:03:25.070Z,53.54
2023-03-21T01:06:04.711Z,53.60
2023-03-21T01:08:51.125Z,53.52
2023-03-21T01:11:21.752Z,53.51
2023-03-21T01:13:56.147Z,53.65
2023-03-21T01:16:27.851Z,53.71
2023-03-21T01:18:56.360Z,53.68
2023-03-21T01:21:24.670Z,53.68
2023-03-21T01:23:52.641Z,53.75
2023-03-21T01:26:20.962Z,53.85
2023-03-21T01:28:49.569Z,53.90
2023-03-21T01:31:18.180Z,53.81
2023-03-21T01:33:46.917Z,53.84
2023-03-21T01:36:23.512Z,53.85
2023-03-21T01:38:54.116Z,53.86
2023-03-21T01:41:33.520Z,53.83
2023-03-21T01:44:06.211Z,53.94
2023-03-21T01:47:09.808Z,53.95
2023-03-21T01:49:46.173Z,53.97
2023-03-21T01:52:35.858Z,54.05
2023-03-21T01:55:08.612Z,53.98
2023-03-21T01:57:58.539Z,53.96
2023-03-21T02:00:36.663Z,54.00
2023-03-21T02:03:16.914Z,54.09
2023-03-21T02:06:11.652Z,54.12
2023-03-21T02:08:41.567Z,54.10
2023-03-21T02:11:13.207Z,54.11
2023-03-21T02:13:43.676Z,54.05
2023-03-21T02:16:21.892Z,54.13
2023-03-21T02:18:53.388Z,54.15
2023-03-21T02:21:49.549Z,54.24
2023-03-21T02:24:37.164Z,54.27
2023-03-21T02:27:14.166Z,54.23
2023-03-21T02:29:56.521Z,54.22
2023-03-21T02:32:37.450Z,54.28
2023-03-21T02:35:22.650Z,54.32
2023-03-21T02:38:23.447Z,54.40
2023-03-21T02:41:19.042Z,54.44
2023-03-21T02:44:01.325Z,54.43
2023-03-21T02:46:43.906Z,54.45
2023-03-21T02:49:20.892Z,54.50
2023-03-21T02:51:51.005Z,54.46
2023-03-21T02:54:35.036Z,54.51
2023-03-21T02:57:10.067Z,54.54
2023-03-21T02:59:51.589Z,54.55
2023-03-21T03:02:25.170Z,54.59
2023-03-21T03:04:53.202Z,54.65
2023-03-21T03:07:41.653Z,54.70
2023-03-21T03:10:21.845Z,54.73
2023-03-21T03:13:01.791Z,54.78
2023-03-21T03:15:51.789Z,54.86
2023-03-21T03:18:19.681Z,54.88
2023-03-21T03:21:08.710Z,54.86
2023-03-21T03:23:39.711Z,54.94
2023-03-21T03:26:15.514Z,54.99
2023-03-21T03:28:46.859Z,55.02
2023-03-21T03:31:22.089Z,55.04
2023-03-21T03:33:56.030Z,55.14
2023-03-21T03:36:32.528Z,55.08
2023-03-21T03:39:09.195Z,55.12
2023-03-21T03:42:05.955Z,55.10
2023-03-21T03:44:33.684Z,55.13
2023-03-21T03:47:08.054Z,55.23
2023-03-21T03:49:38.330Z,55.29
2023-03-21T03:52:21.682Z,55.20
2023-03-21T03:54:56.060Z,55.20
2023-03-21T03:57:26.260Z,55.27
2023-03-21T03:59:54.611Z,55.28
2023-03-21T04:02:32.321Z,55.29
2023-03-21T04:05:02.988Z,55.35
2023-03-21T04:07:31.661Z,55.38
2023-03-21T04:10:01.047Z,55.36
2023-03-21T04:12:29.185Z,55.40
2023-03-21T04:15:20.480Z,55.45
2023-03-21T04:17:55.899Z,55.48
2023-03-21T04:20:36.103Z,55.47
2023-03-21T04:23:06.085Z,55.48
2023-03-21T04:25:34.942Z,55.45
2023-03-21T04:28:04.898Z,55.55
2023-03-21T04:30:40.935Z,55.48
2023-03-21T04:33:14.409Z,55.47
2023-03-21T04:35:46.703Z,55.53
2023-03-21T04:38:15.409Z,55.54
2023-03-21T04:40:44.253Z,55.61
2023-03-21T04:43:12.207Z,55.59
2023-03-21T04:45:41.081Z,55.69
2023-03-21T04:48:09.497Z,55.63
2023-03-21T04:50:37.786Z,55.70
2023-03-21T04:53:06.121Z,55.70
2023-03-21T04:55:34.069Z,55.68
2023-03-21T04:58:02.417Z,55.61
2023-03-21T05:00:32.869Z,55.69
2023-03-21T05:03:01.816Z,55.79
2023-03-21T05:05:29.670Z,55.78
2023-03-21T05:07:57.856Z,55.76
2023-03-21T05:10:25.811Z,55.80
2023-03-21T05:12:53.966Z,55.88
2023-03-21T05:15:21.953Z,55.89
2023-03-21T05:17:49.911Z,55.87
2023-03-21T05:20:17.889Z,55.89
2023-03-21T05:22:46.203Z,55.90
2023-03-21T05:25:18.317Z,55.99
2023-03-21T05:28:07.134Z,55.98
2023-03-21T05:30:35.440Z,55.94
2023-03-21T05:33:03.742Z,55.99
2023-03-21T05:35:32.184Z,55.99
2023-03-21T05:38:02.279Z,56.03
2023-03-21T05:40:34.837Z,56.11
2023-03-21T05:43:03.526Z,56.15
2023-03-21T05:45:31.743Z,56.10
2023-03-21T05:47:59.822Z,56.04
2023-03-21T05:50:29.697Z,56.12
2023-03-21T05:53:16.729Z,56.12
2023-03-21T05:55:44.604Z,56.10
2023-03-21T05:58:18.293Z,56.12
2023-03-21T06:00:49.185Z,56.11
2023-03-21T06:03:25.449Z,56.19
2023-03-21T06:06:19.795Z,56.13
2023-03-21T06:08:54.476Z,56.23
2023-03-21T06:11:24.669Z,56.25
2023-03-21T06:13:55.450Z,56.22
2023-03-21T06:16:23.718Z,56.32
2023-03-21T06:18:51.719Z,56.35
2023-03-21T06:21:33.830Z,56.35
2023-03-21T06:24:02.017Z,56.42
2023-03-21T06:26:30.087Z,56.45
2023-03-21T06:28:58.194Z,56.43
2023-03-21T06:31:26.840Z,56.44
2023-03-21T06:33:59.626Z,56.43
2023-03-21T06:36:27.798Z,56.36
2023-03-21T06:38:56.698Z,56.45
2023-03-21T06:41:25.614Z,56.42
2023-03-21T06:43:59.906Z,56.47
2023-03-21T06:46:30.943Z,56.52
2023-03-21T06:48:59.480Z,56.49
2023-03-21T06:51:30.968Z,56.64
2023-03-21T06:54:11.491Z,56.73
2023-03-21T06:56:42.485Z,56.65
2023-03-21T06:59:12.725Z,56.69
2023-03-21T07:02:02.679Z,56.77
2023-03-21T07:04:31.170Z,56.80
2023-03-21T07:06:59.299Z,56.76
2023-03-21T07:09:28.347Z,56.78
2023-03-21T07:11:58.903Z,56.80
2023-03-21T07:14:34.722Z,56.78
2023-03-21T07:17:02.636Z,56.77
2023-03-21T07:19:30.956Z,56.78
2023-03-21T07:22:01.611Z,56.76
2023-03-21T07:24:30.444Z,56.76
2023-03-21T07:26:58.441Z,56.80
2023-03-21T07:29:26.457Z,56.85
2023-03-21T07:31:54.532Z,56.64
2023-03-21T07:34:23.560Z,56.72
2023-03-21T07:36:51.761Z,56.54
2023-03-21T07:39:20.653Z,56.54
2023-03-21T07:41:48.696Z,56.47
2023-03-21T07:44:36.177Z,56.50
2023-03-21T07:47:05.408Z,56.52
2023-03-21T07:49:33.541Z,56.43
2023-03-21T07:52:04.600Z,56.37
2023-03-21T07:54:33.001Z,56.38
2023-03-21T07:57:01.084Z,56.34
2023-03-21T07:59:29.040Z,56.29
2023-03-21T08:01:57.009Z,56.29
2023-03-21T08:04:26.090Z,56.25
2023-03-21T08:06:54.165Z,56.27
2023-03-21T08:09:22.202Z,56.20
2023-03-21T08:11:50.290Z,56.18
2023-03-21T08:14:18.319Z,56.20
2023-03-21T08:16:46.346Z,56.20
2023-03-21T08:19:14.397Z,56.12
2023-03-21T08:21:42.780Z,56.11
2023-03-21T08:24:11.000Z,56.08
2023-03-21T08:26:39.188Z,56.14
2023-03-21T08:29:07.446Z,56.12
2023-03-21T08:31:35.359Z,56.12
2023-03-21T08:34:03.304Z,56.11
2023-03-21T08:36:32.249Z,56.16
2023-03-21T08:39:06.006Z,56.17
2023-03-21T08:41:35.170Z,56.05
2023-03-21T08:44:03.491Z,56.08
2023-03-21T08:46:31.532Z,56.05
2023-03-21T08:48:59.772Z,56.10
2023-03-21T08:51:27.571Z,56.11
2023-03-21T08:53:55.549Z,56.02
2023-03-21T08:56:23.460Z,55.91
2023-03-21T08:58:51.378Z,55.92
2023-03-21T09:01:19.328Z,55.85
2023-03-21T09:03:47.244Z,55.89
2023-03-21T09:06:15.874Z,55.86
2023-03-21T09:08:46.442Z,55.86
2023-03-21T09:11:14.448Z,55.90
2023-03-21T09:13:42.420Z,55.88
2023-03-21T09:16:10.505Z,55.90
2023-03-21T09:18:49.050Z,55.77
2023-03-21T09:21:18.603Z,55.79
2023-03-21T09:23:47.140Z,55.77
2023-03-21T09:26:15.515Z,55.72
2023-03-21T09:28:43.612Z,55.70
2023-03-21T09:31:12.329Z,55.56
2023-03-21T09:33:41.294Z,55.53
2023-03-21T09:36:15.555Z,55.59
2023-03-21T09:38:45.752Z,55.61
2023-03-21T09:41:32.578Z,55.52
2023-03-21T09:44:19.353Z,55.51
2023-03-21T09:46:52.733Z,55.50
2023-03-21T09:49:36.156Z,55.52
2023-03-21T09:52:19.008Z,55.56
2023-03-21T09:54:47.252Z,55.49
2023-03-21T09:57:24.918Z,55.51
2023-03-21T09:59:53.843Z,55.56
2023-03-21T10:02:22.783Z,55.52
2023-03-21T10:04:50.981Z,55.42
2023-03-21T10:07:20.019Z,55.17
2023-03-21T10:09:49.072Z,54.82
2023-03-21T10:12:30.773Z,54.66
2023-03-21T10:15:00.913Z,54.65
2023-03-21T10:17:28.861Z,54.67
2023-03-21T10:20:17.495Z,54.56
2023-03-21T10:22:46.875Z,54.30
2023-03-21T10:25:16.796Z,54.03
2023-03-21T10:27:45.369Z,54.00
2023-03-21T10:30:22.551Z,54.03
2023-03-21T10:32:50.669Z,53.78
2023-03-21T10:35:19.336Z,53.78
2023-03-21T10:37:47.599Z,53.64
2023-03-21T10:40:16.817Z,53.49
2023-03-21T10:42:44.833Z,53.41
2023-03-21T10:45:17.660Z,53.26
2023-03-21T10:47:48.303Z,53.14
2023-03-21T10:50:20.136Z,53.02
2023-03-21T10:52:50.472Z,53.08
2023-03-21T10:55:22.652Z,53.16
2023-03-21T10:57:55.745Z,53.13
2023-03-21T11:00:26.274Z,53.13
2023-03-21T11:02:54.467Z,53.13
2023-03-21T11:05:27.483Z,53.22
2023-03-21T11:07:57.362Z,53.17
2023-03-21T11:10:33.389Z,53.13
2023-03-21T11:13:03.907Z,52.85
2023-03-21T11:15:41.346Z,52.50
2023-03-21T11:18:20.556Z,52.40
2023-03-21T11:20:50.932Z,52.36
2023-03-21T11:23:20.848Z,52.35
2023-03-21T11:25:51.670Z,52.45
2023-03-21T11:28:22.503Z,52.37
2023-03-21T11:30:52.140Z,52.33
2023-03-21T11:33:20.942Z,52.25
2023-03-21T11:36:02.627Z,52.23
2023-03-21T11:38:32.677Z,52.19
2023-03-21T11:41:01.948Z,52.20
2023-03-21T11:43:39.691Z,52.22
2023-03-21T11:46:09.512Z,52.07
2023-03-21T11:48:42.889Z,52.15
2023-03-21T11:51:16.617Z,52.21
2023-03-21T11:54:10.874Z,52.25
2023-03-21T11:56:42.758Z,52.40
2023-03-21T11:59:10.837Z,52.46
2023-03-21T12:01:51.126Z,52.48
2023-03-21T12:04:19.070Z,52.37
2023-03-21T12:06:52.367Z,52.50
2023-03-21T12:09:39.230Z,52.48
2023-03-21T12:12:36.495Z,52.54
2023-03-21T12:15:25.711Z,52.63
2023-03-21T12:17:59.892Z,52.61
2023-03-21T12:20:37.595Z,52.32
2023-03-21T12:23:24.004Z,52.01
2023-03-21T12:26:01.140Z,51.63
2023-03-21T12:28:44.226Z,51.26
2023-03-21T12:31:12.227Z,50.98
2023-03-21T12:33:44.910Z,50.28
2023-03-21T12:36:17.901Z,49.78
2023-03-21T12:39:08.934Z,49.95
2023-03-21T12:41:40.033Z,49.88
2023-03-21T12:44:13.992Z,49.52
2023-03-21T12:46:44.744Z,49.51
2023-03-21T12:49:25.911Z,49.68
2023-03-21T12:51:57.736Z,49.59
2023-03-21T12:54:36.756Z,49.91
2023-03-21T12:57:08.766Z,49.94
2023-03-21T12:59:39.706Z,49.92
2023-03-21T13:02:26.392Z,50.14
2023-03-21T13:05:16.922Z,50.25
2023-03-21T13:07:48.888Z,50.37
2023-03-21T13:10:20.907Z,50.37
2023-03-21T13:12:56.341Z,50.47
2023-03-21T13:15:39.618Z,50.49
2023-03-21T13:18:10.324Z,50.53
2023-03-21T13:20:38.458Z,50.61
2023-03-21T13:23:08.264Z,50.65
2023-03-21T13:25:41.840Z,50.75
2023-03-21T13:28:16.932Z,50.80
2023-03-21T13:30:44.899Z,50.88
2023-03-21T13:33:14.070Z,50.95
2023-03-21T13:35:43.861Z,50.98
2023-03-21T13:38:15.122Z,51.03
2023-03-21T13:40:50.949Z,51.00
2023-03-21T13:43:37.732Z,51.07
2023-03-21T13:46:11.222Z,51.20
2023-03-21T13:48:49.444Z,51.20
2023-03-21T13:51:36.563Z,51.25
2023-03-21T13:54:19.195Z,51.21
2023-03-21T13:56:47.152Z,51.25
2023-03-21T13:59:18.191Z,51.23
2023-03-21T14:01:58.389Z,51.14
2023-03-21T14:04:32.285Z,51.22
2023-03-21T14:07:20.980Z,51.08
2023-03-21T14:09:50.571Z,51.06
2023-03-21T14:12:24.324Z,51.09
2023-03-21T14:14:55.195Z,50.94
2023-03-21T14:17:24.371Z,51.01
2023-03-21T14:19:56.750Z,51.02
2023-03-21T14:22:24.773Z,50.97
2023-03-21T14:24:57.212Z,51.00
2023-03-21T14:27:27.974Z,51.03
2023-03-21T14:29:56.130Z,51.07
2023-03-21T14:32:25.900Z,51.13
2023-03-21T14:34:55.159Z,51.04
2023-03-21T14:37:31.661Z,51.18
2023-03-21T14:40:01.095Z,51.16
2023-03-21T14:42:33.798Z,51.20
2023-03-21T14:45:11.113Z,51.18
2023-03-21T14:47:39.431Z,51.21
2023-03-21T14:50:10.565Z,51.29
2023-03-21T14:52:41.308Z,51.22
2023-03-21T14:55:14.976Z,51.23
2023-03-21T14:57:43.077Z,51.20
2023-03-21T15:00:23.234Z,51.17
2023-03-21T15:02:51.350Z,51.13
2023-03-21T15:05:33.230Z,51.15
2023-03-21T15:08:02.856Z,51.16
2023-03-21T15:10:31.873Z,51.12
2023-03-21T15:13:01.314Z,51.16
2023-03-21T15:15:30.097Z,51.16
2023-03-21T15:18:00.718Z,51.09
2023-03-21T15:20:30.439Z,51.13
2023-03-21T15:23:02.567Z,50.99
2023-03-21T15:25:33.281Z,50.98
2023-03-21T15:28:01.322Z,50.93
2023-03-21T15:30:30.387Z,50.91
2023-03-21T15:33:05.091Z,50.75
2023-03-21T15:35:46.181Z,50.66
2023-03-21T15:38:29.617Z,50.65
2023-03-21T15:41:16.658Z,50.59
2023-03-21T15:43:44.673Z,50.51
2023-03-21T15:46:17.026Z,50.38
2023-03-21T15:48:45.486Z,50.38
2023-03-21T15:51:22.625Z,50.19
2023-03-21T15:53:54.146Z,50.22
2023-03-21T15:56:22.240Z,50.09
2023-03-21T15:58:52.601Z,49.99
2023-03-21T16:01:22.345Z,49.97
2023-03-21T16:03:58.004Z,49.86
2023-03-21T16:06:33.797Z,49.86
2023-03-21T16:09:22.219Z,49.84
2023-03-21T16:11:50.034Z,49.74
2023-03-21T16:14:21.889Z,49.76
2023-03-21T16:16:50.813Z,49.77
2023-03-21T16:19:19.004Z,49.82
2023-03-21T16:21:47.109Z,49.67
2023-03-21T16:24:14.994Z,49.65
2023-03-21T16:26:50.728Z,49.67
2023-03-21T16:29:19.601Z,49.78
2023-03-21T16:31:49.531Z,49.69
2023-03-21T16:34:17.379Z,49.73
2023-03-21T16:36:45.408Z,49.61
2023-03-21T16:39:21.479Z,49.59
2023-03-21T16:41:50.607Z,49.58
2023-03-21T16:44:19.259Z,49.60
2023-03-21T16:46:50.155Z,49.53
2023-03-21T16:49:19.641Z,49.64
2023-03-21T16:51:47.845Z,49.66
2023-03-21T16:54:15.830Z,49.48
2023-03-21T16:56:47.061Z,49.62
2023-03-21T16:59:15.458Z,49.58
2023-03-21T17:01:46.035Z,49.51
2023-03-21T17:04:15.214Z,49.54
2023-03-21T17:06:47.710Z,49.51
2023-03-21T17:09:16.702Z,49.61
2023-03-21T17:11:45.073Z,49.65
2023-03-21T17:14:16.194Z,49.71
2023-03-21T17:16:45.028Z,49.78
2023-03-21T17:19:13.843Z,49.74
2023-03-21T17:21:42.168Z,49.91
2023-03-21T17:24:10.183Z,49.95
2023-03-21T17:26:38.103Z,49.92
2023-03-21T17:29:07.345Z,49.88
2023-03-21T17:31:36.955Z,49.90
2023-03-21T17:34:05.381Z,49.87
2023-03-21T17:36:34.753Z,49.97
2023-03-21T17:39:04.604Z,50.04
2023-03-21T17:41:33.164Z,50.06
2023-03-21T17:44:01.305Z,50.07
2023-03-21T17:46:34.409Z,50.05
2023-03-21T17:49:02.375Z,50.11
2023-03-21T17:51:30.519Z,50.18
2023-03-21T17:53:58.990Z,50.20
2023-03-21T17:56:30.888Z,50.23
2023-03-21T17:59:00.187Z,50.32
2023-03-21T18:01:30.791Z,50.27
2023-03-21T18:04:02.705Z,50.37
2023-03-21T18:06:31.318Z,50.39
2023-03-21T18:09:00.578Z,50.31
2023-03-21T18:11:29.254Z,50.31
2023-03-21T18:14:13.677Z,50.35
2023-03-21T18:16:43.390Z,50.30
2023-03-21T18:19:13.352Z,50.36
2023-03-21T18:21:44.869Z,50.33
2023-03-21T18:24:13.561Z,50.39
2023-03-21T18:26:41.930Z,50.43
2023-03-21T18:32:06.715Z,50.40
2023-03-21T18:34:36.839Z,50.48
2023-03-21T18:37:07.605Z,50.46
2023-03-21T18:39:36.375Z,50.58
2023-03-21T18:42:05.907Z,50.60
2023-03-21T18:44:38.872Z,50.62
2023-03-21T18:47:07.253Z,50.59
2023-03-21T18:52:23.999Z,50.66
2023-03-21T18:54:53.400Z,50.74
2023-03-21T18:57:38.736Z,50.67
2023-03-21T19:00:17.198Z,50.78
2023-03-21T19:02:48.052Z,50.78
2023-03-21T19:05:17.688Z,50.77
2023-03-21T19:07:46.617Z,50.76
2023-03-21T19:10:18.902Z,50.88
2023-03-21T19:12:49.331Z,50.99
2023-03-21T19:15:19.825Z,50.92
2023-03-21T19:20:38.201Z,51.04
2023-03-21T19:23:08.691Z,50.92
2023-03-21T19:25:37.280Z,50.90
2023-03-21T19:28:05.577Z,50.94
2023-03-21T19:30:34.163Z,50.93
2023-03-21T19:33:02.260Z,51.03
2023-03-21T19:35:30.299Z,51.16
2023-03-21T19:37:58.292Z,51.06
2023-03-21T19:40:26.248Z,51.20
2023-03-21T19:42:54.199Z,51.34
2023-03-21T19:45:22.149Z,51.29
2023-03-21T19:47:50.040Z,51.34
2023-03-21T19:53:05.978Z,51.41
2023-03-21T19:55:34.043Z,51.38
2023-03-21T19:58:02.128Z,51.38
2023-03-21T20:00:30.445Z,51.52
2023-03-21T20:02:58.363Z,51.54
2023-03-21T20:05:26.437Z,51.58
2023-03-21T20:07:57.636Z,51.63
2023-03-21T20:10:28.428Z,51.63
2023-03-21T20:12:56.776Z,51.71
2023-03-21T20:15:26.837Z,51.70
2023-03-21T20:17:57.314Z,51.76
2023-03-21T20:20:25.439Z,51.72
2023-03-21T20:23:06.813Z,51.77
2023-03-21T20:25:39.886Z,51.71
2023-03-21T20:28:23.871Z,51.80
2023-03-21T20:30:54.620Z,51.86
2023-03-21T20:33:22.679Z,51.87
2023-03-21T20:38:43.714Z,51.99
2023-03-21T20:41:12.124Z,52.06
2023-03-21T20:46:28.554Z,52.16
2023-03-21T20:48:58.365Z,52.15
2023-03-21T20:54:15.907Z,52.23
2023-03-21T20:56:44.798Z,52.41
2023-03-21T20:59:23.207Z,52.51
2023-03-21T21:01:54.431Z,52.48
2023-03-21T21:04:23.050Z,52.49
2023-03-21T21:06:55.422Z,52.53
2023-03-21T21:09:23.331Z,52.53
2023-03-21T21:12:07.818Z,52.50
2023-03-21T21:14:37.171Z,52.69
2023-03-21T21:17:23.855Z,52.85
2023-03-21T21:19:53.307Z,52.96
2023-03-21T21:22:21.203Z,53.31
2023-03-21T21:24:49.108Z,53.53
2023-03-21T21:27:16.966Z,53.39
2023-03-21T21:29:47.862Z,53.46
2023-03-21T21:32:18.532Z,53.47
2023-03-21T21:34:47.660Z,53.58
2023-03-21T21:37:15.530Z,53.63
2023-03-21T21:39:43.355Z,53.67
2023-03-21T21:42:11.250Z,53.69
2023-03-21T21:44:44.166Z,53.65
2023-03-21T21:47:12.405Z,53.59
2023-03-21T21:49:41.427Z,53.55
2023-03-21T21:52:13.458Z,53.55
2023-03-21T21:54:46.169Z,53.67
2023-03-21T21:57:14.184Z,53.64
2023-03-21T21:59:42.049Z,53.62
2023-03-21T22:02:11.818Z,53.65
2023-03-21T22:04:40.114Z,53.72
2023-03-21T22:07:14.249Z,53.67
2023-03-21T22:09:42.832Z,53.69
2023-03-21T22:12:11.089Z,53.74
2023-03-21T22:14:39.183Z,53.83
2023-03-21T22:17:07.841Z,53.90
2023-03-21T22:19:35.816Z,53.89
2023-03-21T22:22:03.674Z,53.89
2023-03-21T22:24:31.539Z,53.87
2023-03-21T22:26:59.946Z,53.92
2023-03-21T22:29:28.245Z,53.96
2023-03-21T22:31:56.112Z,53.99
2023-03-21T22:34:25.032Z,54.04
2023-03-21T22:36:53.439Z,54.08
2023-03-21T22:39:26.649Z,54.12
2023-03-21T22:42:00.821Z,54.11
2023-03-21T22:44:34.583Z,54.17
2023-03-21T22:47:04.347Z,54.23
2023-03-21T22:49:32.408Z,54.26
2023-03-21T22:52:01.411Z,54.25
2023-03-21T22:54:29.753Z,54.20
2023-03-21T22:56:58.132Z,54.22
2023-03-21T22:59:26.426Z,54.25
2023-03-21T23:01:54.299Z,54.25
2023-03-21T23:04:23.132Z,54.28
2023-03-21T23:06:51.170Z,54.33
2023-03-21T23:09:20.017Z,54.31
2023-03-21T23:11:49.678Z,54.36
2023-03-21T23:14:20.857Z,54.38
2023-03-21T23:16:50.781Z,54.35
2023-03-21T23:19:20.075Z,54.47
2023-03-21T23:21:49.279Z,54.48
2023-03-21T23:24:17.175Z,54.51
2023-03-21T23:26:46.080Z,54.46
2023-03-21T23:29:16.971Z,54.54
2023-03-21T23:31:45.771Z,54.47
2023-03-21T23:34:13.976Z,54.54
2023-03-21T23:36:41.902Z,54.53
2023-03-21T23:39:10.272Z,54.56
2023-03-21T23:41:38.393Z,54.60
2023-03-21T23:44:06.241Z,54.63
2023-03-21T23:46:34.324Z,54.63
2023-03-21T23:49:02.431Z,54.57
2023-03-21T23:51:30.319Z,54.59
2023-03-21T23:53:58.673Z,54.69
2023-03-21T23:56:27.662Z,54.66
2023-03-21T23:58:57.401Z,54.70
